Time;durP1;ratioP1;P1;durP2;ratioP2;P2;SDS_P1;SDS_P2;PMS_P1;PMS_P2;Temp;Humidity;BMP_temperature;BMP_pressure;BME280_temperature;BME280_humidity;BME280_pressure;Samples;Min_cycle;Max_cycle;Signal;HPM_P1;HPM_P2
2023/09/23 00:00:15;;;;;;;;;0.67;0.67;;;;;17.35;63.13;100441.72;5068684;28;45479;-79
2023/09/23 00:02:45;;;;;;;;;0.00;0.00;;;;;17.34;63.09;100428.53;5066279;28;45414;-79
2023/09/23 00:05:14;;;;;;;;;0.00;0.00;;;;;17.40;62.90;100433.81;5044547;28;45359;-77
2023/09/23 00:07:41;;;;;;;;;0.00;0.00;;;;;17.41;63.04;100425.88;5067825;28;45395;-80
2023/09/23 00:10:10;;;;;;;;;0.67;0.00;;;;;17.49;63.34;100447.88;5066494;28;45501;-77
2023/09/23 00:12:38;;;;;;;;;0.00;0.00;;;;;17.46;63.20;100426.75;5065645;28;45667;-80
2023/09/23 00:15:07;;;;;;;;;1.00;0.00;;;;;17.53;63.50;100438.22;5061195;28;45798;-80
2023/09/23 00:17:35;;;;;;;;;0.00;0.00;;;;;17.57;63.53;100444.38;5067205;28;46183;-80
2023/09/23 00:20:04;;;;;;;;;2.33;0.00;;;;;17.59;63.70;100446.13;5050962;28;45848;-80
2023/09/23 00:22:30;;;;;;;;;0.00;0.00;;;;;17.61;63.67;100439.09;5056772;28;45552;-80
2023/09/23 00:24:55;;;;;;;;;0.33;0.00;;;;;17.63;63.15;100437.31;5068650;28;45363;-77
2023/09/23 00:27:21;;;;;;;;;0.00;0.00;;;;;17.66;63.11;100439.06;5070808;28;46125;-80
2023/09/23 00:29:49;;;;;;;;;2.00;0.33;;;;;17.63;63.17;100429.41;5066236;28;45533;-80
2023/09/23 00:32:17;;;;;;;;;0.00;0.00;;;;;17.66;63.40;100445.22;5066538;28;45479;-80
2023/09/23 00:34:43;;;;;;;;;0.00;0.00;;;;;17.64;63.41;100433.78;5069186;28;45363;-76
2023/09/23 00:37:08;;;;;;;;;0.00;0.00;;;;;17.60;63.24;100424.09;5070899;28;45521;-80
2023/09/23 00:39:37;;;;;;;;;1.33;1.00;;;;;17.60;63.33;100431.16;5065687;28;45348;-80
2023/09/23 00:42:03;;;;;;;;;0.00;0.00;;;;;17.46;63.48;100426.75;5065026;28;45435;-80
2023/09/23 00:44:29;;;;;;;;;0.00;0.00;;;;;17.52;64.09;100444.34;5050600;28;45572;-78
2023/09/23 00:46:55;;;;;;;;;0.00;0.00;;;;;17.52;63.72;100440.84;5064285;28;45441;-80
2023/09/23 00:49:24;;;;;;;;;0.00;0.00;;;;;17.37;63.66;100423.22;5065713;28;45566;-80
2023/09/23 00:51:51;;;;;;;;;0.00;0.00;;;;;17.55;64.26;100449.66;5064639;28;45354;-80
2023/09/23 00:54:21;;;;;;;;;0.00;0.00;;;;;17.55;64.29;100449.66;5059664;28;45339;-79
2023/09/23 00:56:48;;;;;;;;;1.00;0.33;;;;;17.55;63.96;100451.38;5067292;28;46478;-76
2023/09/23 00:59:18;;;;;;;;;0.00;0.00;;;;;17.50;64.05;100443.47;5068418;28;45532;-74
2023/09/23 01:01:51;;;;;;;;;0.00;0.00;;;;;17.55;63.93;100441.72;5064709;28;45442;-77
2023/09/23 01:04:17;;;;;;;;;0.00;0.00;;;;;17.53;63.77;100430.28;5061491;28;45245;-80
2023/09/23 01:06:43;;;;;;;;;0.00;0.00;;;;;17.59;63.56;100435.56;5066889;28;46009;-80
2023/09/23 01:09:16;;;;;;;;;0.00;0.00;;;;;17.57;63.68;100432.03;5066701;28;45633;-80
2023/09/23 01:11:41;;;;;;;;;0.67;0.67;;;;;17.53;63.38;100417.09;5066032;28;45419;-80
2023/09/23 01:14:07;;;;;;;;;1.00;0.00;;;;;17.59;63.60;100434.69;5053911;28;45684;-80
2023/09/23 01:16:32;;;;;;;;;0.00;0.00;;;;;17.55;63.78;100439.09;5068505;28;45328;-80
2023/09/23 01:18:58;;;;;;;;;1.00;0.00;;;;;17.43;64.62;100431.19;5051411;28;45560;-80
2023/09/23 01:21:24;;;;;;;;;1.00;0.00;;;;;17.32;64.93;100441.72;5064769;28;45401;-80
2023/09/23 01:23:50;;;;;;;;;0.00;0.00;;;;;17.42;64.76;100447.88;5066396;28;45596;-80
2023/09/23 01:26:16;;;;;;;;;0.00;0.00;;;;;17.46;64.23;100452.28;5065096;28;46095;-75
2023/09/23 01:28:43;;;;;;;;;2.00;0.00;;;;;17.41;64.47;100454.06;5068483;28;45550;-73
2023/09/23 01:31:09;;;;;;;;;1.67;0.33;;;;;17.39;64.44;100445.22;5067509;28;45974;-73
2023/09/23 01:33:35;;;;;;;;;1.00;0.00;;;;;17.44;64.76;100456.69;5056407;28;45355;-80
2023/09/23 01:36:03;;;;;;;;;0.00;0.00;;;;;17.41;64.71;100447.00;5067214;28;45502;-80
2023/09/23 01:38:32;;;;;;;;;0.33;0.33;;;;;17.40;64.35;100436.44;5067868;28;45465;-80
2023/09/23 01:41:01;;;;;;;;;1.00;0.00;;;;;17.52;64.02;100454.06;5076879;28;45390;-80
2023/09/23 01:43:27;;;;;;;;;1.00;0.67;;;;;17.44;64.24;100443.47;5054708;28;45308;-80
2023/09/23 01:45:57;;;;;;;;;0.33;0.33;;;;;17.49;64.17;100466.38;5056242;28;46166;-80
2023/09/23 01:48:23;;;;;;;;;0.00;0.00;;;;;17.46;64.17;100457.56;5056314;28;45426;-80
2023/09/23 01:50:49;;;;;;;;;1.00;0.00;;;;;17.48;63.85;100454.03;5060928;28;45399;-78
2023/09/23 01:53:16;;;;;;;;;0.00;0.00;;;;;17.51;64.44;100463.75;5075926;28;45433;-74
2023/09/23 01:55:41;;;;;;;;;1.67;0.00;;;;;17.60;64.94;100482.22;5076592;28;46549;-78
2023/09/23 01:58:07;;;;;;;;;0.00;0.00;;;;;17.62;64.89;100484.88;5076568;28;45233;-73
2023/09/23 02:00:34;;;;;;;;;1.00;0.00;;;;;17.61;64.27;100483.13;5075614;28;46595;-73
2023/09/23 02:03:00;;;;;;;;;0.00;0.00;;;;;17.57;64.34;100479.59;5057782;28;45461;-77
2023/09/23 02:05:29;;;;;;;;;0.00;0.00;;;;;17.63;64.50;100484.00;5078674;28;45637;-80
2023/09/23 02:07:55;;;;;;;;;1.00;0.00;;;;;17.60;64.53;100483.97;5064659;28;45323;-80
2023/09/23 02:10:24;;;;;;;;;0.33;0.33;;;;;17.34;64.05;100449.66;5074132;28;45816;-80
2023/09/23 02:12:50;;;;;;;;;0.00;0.00;;;;;17.50;64.82;100485.72;5047928;28;45575;-79
2023/09/23 02:15:16;;;;;;;;;1.00;0.00;;;;;17.44;64.53;100475.16;5049878;28;47934;-80
2023/09/23 02:17:48;;;;;;;;;0.00;0.00;;;;;17.35;64.73;100477.78;5074607;28;45653;-78
2023/09/23 02:20:18;;;;;;;;;0.00;0.00;;;;;17.27;64.38;100478.69;5078855;28;45720;-80
2023/09/23 02:22:48;;;;;;;;;0.33;0.00;;;;;17.21;64.30;100478.69;5080437;28;45342;-79
2023/09/23 02:25:15;;;;;;;;;1.33;1.00;;;;;17.16;64.44;100482.19;5083856;28;46154;-80
2023/09/23 02:27:49;;;;;;;;;1.00;1.00;;;;;17.05;64.37;100469.84;5083350;28;45367;-79
2023/09/23 02:30:14;;;;;;;;;0.00;0.00;;;;;16.98;64.22;100460.13;5081179;28;45394;-80
2023/09/23 02:32:42;;;;;;;;;1.00;0.00;;;;;16.97;64.40;100460.13;5080538;28;45442;-80
2023/09/23 02:35:11;;;;;;;;;0.00;0.00;;;;;16.98;64.46;100469.81;5082687;28;45383;-80
2023/09/23 02:37:47;;;;;;;;;1.00;1.00;;;;;16.91;64.80;100466.31;5080579;28;45243;-80
2023/09/23 02:40:17;;;;;;;;;2.00;0.33;;;;;16.85;64.70;100472.44;5080421;28;45469;-80
2023/09/23 02:42:47;;;;;;;;;0.00;0.00;;;;;16.86;65.04;100478.59;5080419;28;45380;-80
2023/09/23 02:45:20;;;;;;;;;1.00;1.00;;;;;16.83;64.79;100476.81;5064871;28;45540;-80
2023/09/23 02:47:46;;;;;;;;;1.00;0.33;;;;;16.82;64.99;100472.41;5062858;28;45283;-78
2023/09/23 02:50:13;;;;;;;;;0.00;0.00;;;;;16.78;64.62;100470.59;5080794;28;45407;-79
2023/09/23 02:52:40;;;;;;;;;1.00;0.00;;;;;16.85;64.40;100475.06;5041421;28;45605;-79
2023/09/23 02:55:12;;;;;;;;;0.00;0.00;;;;;16.83;64.64;100473.28;5057933;28;46275;-79
2023/09/23 02:57:45;;;;;;;;;1.00;0.00;;;;;16.82;65.02;100482.09;5042961;28;45407;-80
2023/09/23 03:00:19;;;;;;;;;1.33;0.33;;;;;16.82;64.86;100479.44;5059744;28;45348;-79
2023/09/23 03:02:57;;;;;;;;;0.67;0.67;;;;;16.83;65.71;100484.75;5060563;28;45554;-79
2023/09/23 03:05:34;;;;;;;;;0.33;0.00;;;;;16.78;65.02;100481.16;5071349;28;45761;-78
2023/09/23 03:08:00;;;;;;;;;1.00;0.00;;;;;16.88;64.73;100488.25;5042841;28;45587;-80
2023/09/23 03:10:39;;;;;;;;;1.00;1.00;;;;;16.94;64.84;100492.69;5058428;28;45461;-80
2023/09/23 03:13:05;;;;;;;;;0.00;0.00;;;;;16.98;63.79;100485.66;5076197;28;45508;-74
2023/09/23 03:15:53;;;;;;;;;1.00;0.00;;;;;16.99;64.00;100476.84;5059034;28;45463;-79
2023/09/23 03:18:33;;;;;;;;;0.00;0.00;;;;;16.83;63.96;100441.63;5058849;28;45288;-79
2023/09/23 03:21:08;;;;;;;;;0.67;0.00;;;;;17.12;63.07;100480.41;5059211;28;45468;-80
2023/09/23 03:23:35;;;;;;;;;1.33;1.00;;;;;17.09;62.96;100476.03;5071821;28;45441;-79
2023/09/23 03:26:04;;;;;;;;;0.00;0.00;;;;;17.19;63.08;100504.19;5071425;28;45962;-79
2023/09/23 03:28:30;;;;;;;;;0.67;0.00;;;;;17.18;63.42;100502.41;5074572;28;45320;-79
2023/09/23 03:31:02;;;;;;;;;1.00;0.00;;;;;17.20;63.38;100505.94;5075530;28;45243;-79
2023/09/23 03:33:29;;;;;;;;;1.00;0.00;;;;;17.21;63.22;100499.78;5093439;28;45377;-78
2023/09/23 03:35:55;;;;;;;;;1.00;1.00;;;;;17.22;63.41;100493.63;5069827;28;47011;-76
2023/09/23 03:38:21;;;;;;;;;0.00;0.00;;;;;17.30;63.16;100502.44;5044086;28;45544;-72
2023/09/23 03:40:51;;;;;;;;;1.00;0.00;;;;;17.27;63.16;100480.44;5069661;28;45412;-74
2023/09/23 03:43:17;;;;;;;;;0.00;0.00;;;;;17.37;63.85;100499.78;5074685;28;45519;-80
2023/09/23 03:45:43;;;;;;;;;0.00;0.00;;;;;17.29;65.67;100497.16;5061951;28;45549;-80
2023/09/23 03:48:10;;;;;;;;;0.33;0.00;;;;;17.27;65.03;100491.88;5059404;28;45531;-79
2023/09/23 03:50:36;;;;;;;;;0.33;0.33;;;;;17.34;64.17;100498.03;5067962;28;45543;-79
2023/09/23 03:53:02;;;;;;;;;1.00;0.33;;;;;17.40;64.17;100513.88;5079371;28;45506;-80
2023/09/23 03:55:28;;;;;;;;;1.67;1.00;;;;;17.38;64.44;100504.22;5055817;28;45637;-80
2023/09/23 03:57:54;;;;;;;;;1.00;0.33;;;;;17.41;64.31;100506.88;5055883;28;45492;-75
2023/09/23 04:00:26;;;;;;;;;0.00;0.00;;;;;17.44;64.81;100493.66;5076939;28;45485;-77
2023/09/23 04:02:52;;;;;;;;;1.00;1.00;;;;;17.42;65.16;100498.06;5060186;28;45572;-80
2023/09/23 04:05:20;;;;;;;;;0.00;0.00;;;;;17.34;65.22;100494.53;5067811;28;45438;-79
2023/09/23 04:07:50;;;;;;;;;1.33;0.33;;;;;17.33;65.22;100495.38;5052793;28;45312;-80
2023/09/23 04:10:23;;;;;;;;;0.33;0.00;;;;;17.37;65.31;100499.78;5077563;28;45485;-80
2023/09/23 04:12:49;;;;;;;;;1.00;1.00;;;;;17.37;65.58;100499.78;5057257;28;45504;-80
2023/09/23 04:15:15;;;;;;;;;2.00;1.00;;;;;17.30;66.01;100498.91;5057855;28;46092;-79
2023/09/23 04:17:41;;;;;;;;;1.00;0.00;;;;;17.29;65.32;100500.69;5055276;28;45643;-80
2023/09/23 04:20:11;;;;;;;;;1.00;0.33;;;;;17.31;65.58;100505.97;5040792;27;45633;-80
2023/09/23 04:22:41;;;;;;;;;0.00;0.00;;;;;17.29;65.83;100513.00;5063913;28;45404;-80
2023/09/23 04:25:07;;;;;;;;;0.00;0.00;;;;;17.30;65.91;100542.03;5065698;28;45468;-80
2023/09/23 04:27:37;;;;;;;;;0.00;0.00;;;;;17.23;66.45;100537.63;5039141;28;45359;-79
2023/09/23 04:30:07;;;;;;;;;1.00;0.00;;;;;17.32;67.16;100551.75;5054913;28;46354;-80
2023/09/23 04:32:34;;;;;;;;;0.00;0.00;;;;;17.29;67.42;100550.84;5040583;28;45454;-77
2023/09/23 04:34:59;;;;;;;;;0.33;0.00;;;;;17.28;67.85;100549.06;5052770;28;46460;-80
2023/09/23 04:37:27;;;;;;;;;1.00;1.00;;;;;17.34;67.62;100556.13;5042733;28;45346;-80
2023/09/23 04:39:53;;;;;;;;;1.00;1.00;;;;;17.22;68.11;100529.72;5073546;28;45288;-80
2023/09/23 04:42:21;;;;;;;;;1.00;1.00;;;;;17.32;66.73;100544.69;5045145;28;45625;-79
2023/09/23 04:44:47;;;;;;;;;1.00;1.00;;;;;17.29;66.57;100537.66;5057150;28;46056;-80
2023/09/23 04:47:17;;;;;;;;;1.00;0.00;;;;;17.44;66.74;100546.47;5054607;28;45307;-75
2023/09/23 04:49:43;;;;;;;;;0.00;0.00;;;;;17.47;66.88;100546.50;5062862;28;45515;-80
2023/09/23 04:52:09;;;;;;;;;1.00;1.00;;;;;17.44;67.75;100552.63;5057393;28;45497;-79
2023/09/23 04:54:35;;;;;;;;;1.00;0.00;;;;;17.38;67.19;100546.47;5056307;28;46781;-80
2023/09/23 04:57:06;;;;;;;;;1.00;0.00;;;;;17.40;67.64;100550.88;5057499;28;45437;-79
2023/09/23 04:59:32;;;;;;;;;1.00;1.00;;;;;17.33;67.62;100543.81;5065179;28;45637;-79
2023/09/23 05:01:59;;;;;;;;;0.00;0.00;;;;;17.40;68.22;100564.06;5062848;28;45579;-79
2023/09/23 05:04:25;;;;;;;;;0.00;0.00;;;;;17.30;68.51;100549.97;5057992;28;46242;-78
2023/09/23 05:06:50;;;;;;;;;1.67;1.00;;;;;17.03;68.09;100519.09;5074715;28;45520;-80
2023/09/23 05:09:16;;;;;;;;;0.00;0.00;;;;;17.17;68.32;100557.84;5070260;28;45426;-80
2023/09/23 05:11:42;;;;;;;;;4.00;2.00;;;;;16.88;68.29;100509.38;5057551;28;45750;-80
2023/09/23 05:14:07;;;;;;;;;1.33;1.00;;;;;17.23;68.41;100565.78;5049588;28;47621;-80
2023/09/23 05:16:33;;;;;;;;;0.00;0.00;;;;;17.28;68.14;100575.47;5057322;28;45369;-80
2023/09/23 05:18:59;;;;;;;;;2.00;1.00;;;;;17.26;68.70;100566.66;5073013;28;45474;-77
2023/09/23 05:21:25;;;;;;;;;2.00;1.00;;;;;17.31;69.08;100571.97;5078145;28;45212;-80
2023/09/23 05:23:51;;;;;;;;;1.00;1.00;;;;;17.28;68.76;100570.19;5058482;28;46082;-78
2023/09/23 05:26:16;;;;;;;;;2.67;1.00;;;;;17.25;69.10;100564.91;5074036;28;45564;-79
2023/09/23 05:28:45;;;;;;;;;1.00;0.00;;;;;17.20;69.30;100565.78;5064369;28;45399;-73
2023/09/23 05:31:14;;;;;;;;;1.00;1.00;;;;;17.17;69.25;100564.03;5074192;28;45606;-79
2023/09/23 05:33:41;;;;;;;;;2.00;1.00;;;;;17.18;68.99;100578.97;5055202;28;47955;-79
2023/09/23 05:36:07;;;;;;;;;1.00;0.00;;;;;17.20;69.02;100578.97;5056134;28;45488;-74
2023/09/23 05:38:36;;;;;;;;;0.67;0.00;;;;;17.23;69.48;100590.44;5074924;28;45516;-79
2023/09/23 05:41:04;;;;;;;;;1.00;1.00;;;;;17.14;69.92;100586.88;5061692;28;45366;-79
2023/09/23 05:43:30;;;;;;;;;1.00;0.67;;;;;17.08;69.21;100579.81;5076317;28;45708;-73
2023/09/23 05:45:56;;;;;;;;;3.00;3.00;;;;;17.18;70.51;100610.66;5078413;28;45416;-79
2023/09/23 05:48:21;;;;;;;;;3.00;2.67;;;;;17.19;69.50;100583.38;5069002;28;45575;-81
2023/09/23 05:50:49;;;;;;;;;1.67;1.00;;;;;17.19;69.30;100569.28;5076200;28;45483;-80
2023/09/23 05:53:15;;;;;;;;;3.75;3.00;;;;;17.21;69.50;100564.88;5060137;28;46215;-78
2023/09/23 05:55:40;;;;;;;;;3.33;3.00;;;;;17.19;69.35;100564.00;5073548;28;45532;-73
2023/09/23 05:58:06;;;;;;;;;1.00;1.00;;;;;17.13;69.29;100554.34;5048294;28;45601;-80
2023/09/23 06:00:32;;;;;;;;;4.00;3.00;;;;;17.10;69.36;100556.94;5056102;28;45398;-72
2023/09/23 06:02:57;;;;;;;;;2.00;1.00;;;;;17.12;69.46;100576.31;5076604;28;45541;-72
2023/09/23 06:05:23;;;;;;;;;3.00;1.00;;;;;17.10;69.74;100573.66;5077812;28;45465;-80
2023/09/23 06:07:49;;;;;;;;;3.00;2.00;;;;;17.10;69.58;100581.56;5078033;28;45435;-73
2023/09/23 06:10:15;;;;;;;;;1.00;0.00;;;;;17.06;69.52;100576.28;5060111;28;45524;-72
2023/09/23 06:12:41;;;;;;;;;1.00;1.00;;;;;17.14;69.75;100590.41;5077703;28;46258;-79
2023/09/23 06:15:10;;;;;;;;;2.00;1.00;;;;;17.05;70.28;100598.25;5058224;28;45481;-79
2023/09/23 06:17:37;;;;;;;;;1.33;1.00;;;;;17.09;69.43;100598.31;5076733;28;45510;-79
2023/09/23 06:20:03;;;;;;;;;1.00;0.33;;;;;17.19;69.08;100598.31;5057467;28;45639;-79
2023/09/23 06:22:29;;;;;;;;;0.00;0.00;;;;;17.28;68.96;100599.22;5078274;28;46214;-80
2023/09/23 06:24:55;;;;;;;;;1.33;0.67;;;;;17.28;68.55;100601.88;5076910;28;45407;-72
2023/09/23 06:27:20;;;;;;;;;1.00;0.33;;;;;17.21;69.78;100615.03;5077907;28;45666;-78
2023/09/23 06:29:47;;;;;;;;;0.33;0.33;;;;;17.25;68.89;100620.38;5058506;28;45560;-80
2023/09/23 06:32:15;;;;;;;;;1.00;1.00;;;;;17.32;68.92;100623.03;5058084;28;45370;-78
2023/09/23 06:34:41;;;;;;;;;1.00;1.00;;;;;17.38;68.27;100620.41;5058430;28;45509;-80
2023/09/23 06:37:06;;;;;;;;;1.67;1.00;;;;;17.36;67.92;100611.59;5073835;28;45344;-80
2023/09/23 06:39:32;;;;;;;;;1.00;1.00;;;;;17.52;68.01;100631.88;5058929;28;45741;-73
2023/09/23 06:41:58;;;;;;;;;0.67;0.67;;;;;17.54;67.67;100623.97;5065836;28;45660;-80
2023/09/23 06:44:23;;;;;;;;;0.33;0.33;;;;;17.59;67.22;100635.44;5066600;28;45418;-80
2023/09/23 06:46:50;;;;;;;;;2.00;2.00;;;;;17.68;67.23;100652.16;5058402;28;45561;-79
2023/09/23 06:49:16;;;;;;;;;0.67;0.00;;;;;17.69;67.18;100648.66;5073664;28;45660;-80
2023/09/23 06:51:42;;;;;;;;;1.00;1.00;;;;;17.67;67.56;100649.56;5039354;28;46920;-80
2023/09/23 06:54:08;;;;;;;;;1.00;0.00;;;;;17.73;67.98;100665.41;5039766;28;45427;-79
2023/09/23 06:56:34;;;;;;;;;0.00;0.00;;;;;17.68;67.67;100654.81;5040326;28;45554;-78
2023/09/23 06:59:01;;;;;;;;;1.00;0.33;;;;;17.72;67.96;100666.28;5040093;28;45409;-80
2023/09/23 07:01:27;;;;;;;;;1.67;1.00;;;;;17.72;67.86;100663.63;5043115;28;45461;-80
2023/09/23 07:03:53;;;;;;;;;1.00;1.00;;;;;17.79;67.92;100675.13;5069184;28;45303;-79
2023/09/23 07:06:19;;;;;;;;;0.33;0.33;;;;;17.85;67.54;100672.53;5045080;28;45614;-79
2023/09/23 07:08:45;;;;;;;;;2.00;1.00;;;;;18.00;67.04;100675.16;5059304;28;45592;-80
2023/09/23 07:11:14;;;;;;;;;0.33;0.33;;;;;18.13;66.80;100665.50;5071737;28;47164;-80
2023/09/23 07:13:40;;;;;;;;;1.00;1.00;;;;;18.30;66.15;100670.78;5049795;28;45480;-79
2023/09/23 07:16:06;;;;;;;;;1.00;0.00;;;;;18.33;66.10;100652.28;5063113;28;45419;-79
2023/09/23 07:18:32;;;;;;;;;0.00;0.00;;;;;18.49;65.72;100663.75;5066513;28;45481;-80
2023/09/23 07:20:58;;;;;;;;;0.33;0.33;;;;;18.60;64.89;100671.66;5065921;28;47555;-80
2023/09/23 07:23:24;;;;;;;;;2.00;1.00;;;;;18.58;64.93;100665.50;5057765;28;45311;-80
2023/09/23 07:25:50;;;;;;;;;1.00;0.00;;;;;18.65;64.82;100677.84;5064110;28;45461;-80
2023/09/23 07:28:16;;;;;;;;;3.67;2.67;;;;;18.68;64.96;100681.38;5077883;28;45475;-79
2023/09/23 07:30:42;;;;;;;;;1.00;1.00;;;;;18.75;64.86;100679.59;5059397;28;45954;-80
2023/09/23 07:33:08;;;;;;;;;0.00;0.00;;;;;18.86;64.70;100695.47;5058343;28;45307;-79
2023/09/23 07:35:34;;;;;;;;;0.00;0.00;;;;;18.85;64.66;100691.97;5040082;28;45279;-78
2023/09/23 07:38:00;;;;;;;;;0.33;0.33;;;;;18.95;64.14;100707.84;5056947;28;45524;-80
2023/09/23 07:40:28;;;;;;;;;1.33;0.00;;;;;18.97;64.16;100700.78;5075522;28;45679;-79
2023/09/23 07:42:54;;;;;;;;;0.00;0.00;;;;;18.97;64.31;100711.34;5076456;28;45457;-79
2023/09/23 07:45:20;;;;;;;;;1.00;0.00;;;;;19.06;63.74;100714.88;5075645;28;45485;-80
2023/09/23 07:47:45;;;;;;;;;1.00;0.00;;;;;19.02;63.19;100709.56;5076993;28;45465;-79
2023/09/23 07:50:11;;;;;;;;;2.00;1.00;;;;;19.07;63.67;100719.25;5055604;28;45584;-80
2023/09/23 07:52:37;;;;;;;;;0.00;0.00;;;;;19.10;63.92;100723.69;5057578;28;45391;-79
2023/09/23 07:55:04;;;;;;;;;1.33;0.00;;;;;19.15;64.23;100737.78;5075298;28;45521;-82
2023/09/23 07:57:31;;;;;;;;;3.00;3.00;;;;;19.18;63.45;100740.44;5074991;28;45411;-80
2023/09/23 07:59:57;;;;;;;;;1.00;1.00;;;;;19.10;63.61;100736.94;5076068;28;46197;-77
2023/09/23 08:02:22;;;;;;;;;1.00;1.00;;;;;19.18;63.49;100753.69;5056557;28;45349;-77
2023/09/23 08:04:50;;;;;;;;;2.00;0.00;;;;;19.19;63.36;100766.03;5077382;28;45442;-77
2023/09/23 08:07:15;;;;;;;;;1.67;1.67;;;;;19.07;64.48;100758.09;5060214;28;45747;-75
2023/09/23 08:09:41;;;;;;;;;3.00;3.00;;;;;19.15;65.01;100782.81;5072036;28;45469;-78
2023/09/23 08:12:07;;;;;;;;;4.33;3.00;;;;;18.84;65.90;100777.56;5057170;28;45877;-73
2023/09/23 08:14:33;;;;;;;;;3.33;3.33;;;;;18.85;66.82;100796.97;5057290;28;45581;-78
2023/09/23 08:16:58;;;;;;;;;2.00;1.67;;;;;18.89;65.55;100790.78;5056818;28;45602;-78
2023/09/23 08:19:24;;;;;;;;;1.00;1.00;;;;;18.84;65.35;100800.47;5056827;28;46126;-80
2023/09/23 08:21:50;;;;;;;;;1.00;0.33;;;;;18.83;65.81;100794.31;5038393;28;45438;-81
2023/09/23 08:24:15;;;;;;;;;1.67;1.67;;;;;18.84;66.23;100793.44;5070747;28;45487;-77
2023/09/23 08:26:41;;;;;;;;;2.00;2.00;;;;;18.87;66.09;100801.34;5076043;27;45414;-77
2023/09/23 08:29:07;;;;;;;;;4.00;3.00;;;;;18.76;68.14;100800.47;5067615;27;46156;-79
2023/09/23 08:31:33;;;;;;;;;0.33;0.00;;;;;18.82;67.13;100808.44;5068261;28;45505;-77
2023/09/23 08:33:59;;;;;;;;;1.00;1.00;;;;;18.81;66.80;100805.78;5076958;27;45488;-73
2023/09/23 08:36:24;;;;;;;;;3.00;2.00;;;;;18.84;67.31;100811.06;5075262;28;45435;-77
2023/09/23 08:38:54;;;;;;;;;2.00;1.00;;;;;18.97;67.25;100806.66;5074869;28;45540;-76
2023/09/23 08:41:22;;;;;;;;;2.33;2.00;;;;;19.16;67.34;100813.72;5075195;27;45359;-78
2023/09/23 08:43:51;;;;;;;;;1.33;1.33;;;;;19.32;66.43;100814.59;5050006;28;45565;-77
2023/09/23 08:46:19;;;;;;;;;1.00;1.00;;;;;19.36;66.40;100800.44;5075754;28;45478;-76
2023/09/23 08:48:45;;;;;;;;;2.00;2.00;;;;;19.68;65.18;100804.78;5075458;28;46449;-77
2023/09/23 08:51:12;;;;;;;;;1.00;1.00;;;;;19.95;63.38;100811.75;5063722;28;45486;-77
2023/09/23 08:53:42;;;;;;;;;0.67;0.67;;;;;20.14;62.33;100819.66;5072393;28;45355;-79
2023/09/23 08:56:08;;;;;;;;;1.33;0.67;;;;;20.21;62.34;100813.41;5079043;28;45350;-76
2023/09/23 08:58:34;;;;;;;;;1.33;1.33;;;;;20.32;62.77;100814.22;5058091;28;47834;-76
2023/09/23 09:01:00;;;;;;;;;0.00;0.00;;;;;20.38;62.79;100831.88;5058788;28;45449;-75
2023/09/23 09:03:26;;;;;;;;;1.00;1.00;;;;;20.28;63.38;100812.47;5076916;28;45500;-79
2023/09/23 09:05:52;;;;;;;;;1.00;1.00;;;;;20.34;63.06;100820.41;5076461;28;45496;-75
2023/09/23 09:08:18;;;;;;;;;2.00;0.67;;;;;20.46;62.32;100838.03;5072589;28;45438;-74
2023/09/23 09:10:45;;;;;;;;;0.00;0.00;;;;;20.57;62.61;100840.59;5076234;28;45633;-76
2023/09/23 09:13:10;;;;;;;;;1.67;0.67;;;;;20.82;62.32;100830.72;5078098;28;45794;-72
2023/09/23 09:15:37;;;;;;;;;2.00;2.00;;;;;21.09;61.80;100826.97;5080108;28;45422;-76
2023/09/23 09:18:04;;;;;;;;;0.67;0.67;;;;;21.50;60.73;100840.78;5079822;28;46217;-73
2023/09/23 09:20:31;;;;;;;;;0.00;0.00;;;;;21.95;58.61;100815.44;5076527;28;45881;-73
2023/09/23 09:22:57;;;;;;;;;1.00;1.00;;;;;22.43;56.13;100828.13;5069653;28;45440;-77
2023/09/23 09:25:23;;;;;;;;;1.00;1.00;;;;;22.50;56.43;100815.59;5072148;28;45506;-73
2023/09/23 09:27:49;;;;;;;;;1.00;0.33;;;;;22.94;55.54;100830.00;5067955;28;45612;-80
2023/09/23 09:30:15;;;;;;;;;1.00;1.00;;;;;23.19;53.47;100834.03;5077515;28;45377;-76
2023/09/23 09:32:44;;;;;;;;;0.33;0.00;;;;;23.26;53.85;100821.50;5065947;27;45397;-74
2023/09/23 09:35:20;;;;;;;;;1.00;0.00;;;;;23.63;51.67;100832.38;5072700;28;45629;-76
2023/09/23 09:37:48;;;;;;;;;0.00;0.00;;;;;23.93;51.87;100811.31;5073382;28;46102;-77
2023/09/23 09:40:18;;;;;;;;;0.00;0.00;;;;;24.37;51.49;100824.59;5074099;28;45571;-77
2023/09/23 09:43:04;;;;;;;;;2.00;1.00;;;;;24.63;51.52;100818.72;5078341;28;45678;-80
2023/09/23 09:45:40;;;;;;;;;1.00;1.00;;;;;25.01;50.27;100828.44;5076774;28;45491;-77
2023/09/23 09:48:08;;;;;;;;;7.67;4.67;;;;;25.81;50.38;100836.16;5075979;28;46157;-75
2023/09/23 09:50:38;;;;;;;;;0.00;0.00;;;;;26.49;47.07;100829.66;5058814;28;45526;-81
2023/09/23 09:53:06;;;;;;;;;2.00;1.33;;;;;26.61;46.75;100823.06;5074428;28;45469;-80
2023/09/23 09:55:33;;;;;;;;;3.00;3.00;;;;;26.88;46.11;100829.34;5076593;28;45465;-75
2023/09/23 09:58:01;;;;;;;;;7.33;7.33;;;;;27.01;45.00;100832.47;5072125;28;46142;-82
2023/09/23 10:00:27;;;;;;;;;3.67;2.33;;;;;26.94;46.26;100829.13;5078603;28;45492;-76
2023/09/23 10:02:59;;;;;;;;;0.33;0.00;;;;;26.97;45.28;100829.00;5068244;28;45605;-75
2023/09/23 10:05:32;;;;;;;;;0.00;0.00;;;;;26.79;45.58;100838.53;5075722;28;45355;-75
2023/09/23 10:07:57;;;;;;;;;5.33;5.33;;;;;26.64;46.08;100825.66;5076993;28;46213;-75
2023/09/23 10:10:34;;;;;;;;;2.33;2.00;;;;;26.42;45.51;100832.56;5078102;28;46047;-81
2023/09/23 10:13:12;;;;;;;;;1.67;1.00;;;;;26.33;45.91;100842.66;5054102;28;45283;-76
2023/09/23 10:15:40;;;;;;;;;1.00;0.00;;;;;26.24;46.75;100837.56;5050855;28;47213;-75
2023/09/23 10:18:16;;;;;;;;;0.00;0.00;;;;;26.24;46.92;100847.41;5067840;28;45576;-80
2023/09/23 10:20:51;;;;;;;;;0.00;0.00;;;;;26.39;47.36;100847.81;5067834;28;45438;-75
2023/09/23 10:23:19;;;;;;;;;1.00;0.67;;;;;26.47;45.53;100836.88;5069384;28;45445;-78
2023/09/23 10:25:47;;;;;;;;;5.00;5.00;;;;;26.55;46.13;100839.31;5069144;28;45363;-75
2023/09/23 10:28:30;;;;;;;;;1.00;1.00;;;;;26.47;46.32;100833.31;5068003;28;46111;-78
2023/09/23 10:31:00;;;;;;;;;1.00;1.00;;;;;26.62;45.79;100823.94;5071618;28;45315;-76
2023/09/23 10:33:29;;;;;;;;;3.00;3.00;;;;;26.62;45.59;100823.94;5068186;28;45307;-75
2023/09/23 10:35:56;;;;;;;;;2.00;2.00;;;;;26.68;44.56;100835.34;5068668;28;45450;-81
2023/09/23 10:38:23;;;;;;;;;0.00;0.00;;;;;26.75;45.32;100826.16;5073246;27;46617;-83
2023/09/23 10:40:53;;;;;;;;;1.00;1.00;;;;;26.84;44.42;100834.84;5043514;28;45584;-80
2023/09/23 10:43:23;;;;;;;;;1.00;1.00;;;;;26.92;44.33;100832.81;5068555;28;45498;-81
2023/09/23 10:45:54;;;;;;;;;2.00;1.00;;;;;26.86;44.99;100835.66;5073052;28;45568;-72
2023/09/23 10:48:19;;;;;;;;;0.00;0.00;;;;;26.69;45.11;100820.16;5074136;28;45229;-75
2023/09/23 10:50:46;;;;;;;;;2.00;2.00;;;;;26.73;45.96;100833.38;5055745;28;45438;-75
2023/09/23 10:53:15;;;;;;;;;1.00;1.00;;;;;26.91;45.76;100834.59;5066092;28;45451;-78
2023/09/23 10:55:41;;;;;;;;;0.00;0.00;;;;;26.99;43.92;100831.66;5077357;28;45505;-75
2023/09/23 10:58:10;;;;;;;;;2.00;2.00;;;;;27.20;43.93;100835.41;5055033;28;46965;-78
2023/09/23 11:00:40;;;;;;;;;1.33;1.33;;;;;27.31;42.48;100837.75;5060445;28;45473;-77
2023/09/23 11:03:16;;;;;;;;;2.00;2.00;;;;;27.32;43.09;100801.97;5066453;28;45593;-78
2023/09/23 11:05:43;;;;;;;;;2.00;0.67;;;;;27.77;42.43;100828.03;5069125;28;45580;-79
2023/09/23 11:08:11;;;;;;;;;6.00;4.33;;;;;28.04;41.97;100838.72;5049391;28;46958;-79
2023/09/23 11:10:38;;;;;;;;;1.00;0.33;;;;;28.09;41.35;100829.56;5058386;28;45433;-76
2023/09/23 11:13:05;;;;;;;;;3.00;3.00;;;;;27.95;42.67;100840.81;5048295;28;45435;-79
2023/09/23 11:15:31;;;;;;;;;0.00;0.00;;;;;28.01;42.32;100838.81;5071148;28;45527;-78
2023/09/23 11:17:57;;;;;;;;;2.33;1.00;;;;;27.95;42.54;100846.19;5067773;28;45451;-79
2023/09/23 11:20:31;;;;;;;;;1.67;1.00;;;;;27.86;43.00;100826.84;5061729;28;45613;-78
2023/09/23 11:23:03;;;;;;;;;1.33;1.00;;;;;27.94;41.87;100836.38;5071840;28;45542;-79
2023/09/23 11:25:49;;;;;;;;;1.00;1.00;;;;;28.04;41.89;100849.47;5067130;28;45399;-79